sensor_id;sensor_type;location;lat;lon;timestamp;P1;durP1;ratioP1;P2;durP2;ratioP2
63087;SDS011;49173;43.164;27.786;2023-01-19T00:00:07;16.63;;;4.05;;
63087;SDS011;49173;43.164;27.786;2023-01-19T00:02:35;17.88;;;3.35;;
63087;SDS011;49173;43.164;27.786;2023-01-19T00:05:01;16.30;;;3.90;;
63087;SDS011;49173;43.164;27.786;2023-01-19T00:07:28;19.50;;;3.58;;
63087;SDS011;49173;43.164;27.786;2023-01-19T00:09:55;17.55;;;3.28;;
63087;SDS011;49173;43.164;27.786;2023-01-19T00:12:21;18.63;;;3.58;;
63087;SDS011;49173;43.164;27.786;2023-01-19T00:14:47;23.50;;;3.45;;
63087;SDS011;49173;43.164;27.786;2023-01-19T00:17:12;15.23;;;3.53;;
63087;SDS011;49173;43.164;27.786;2023-01-19T00:19:38;16.13;;;3.33;;
63087;SDS011;49173;43.164;27.786;2023-01-19T00:22:04;16.83;;;3.28;;
63087;SDS011;49173;43.164;27.786;2023-01-19T00:24:32;19.20;;;3.50;;
63087;SDS011;49173;43.164;27.786;2023-01-19T00:26:58;19.90;;;4.03;;
63087;SDS011;49173;43.164;27.786;2023-01-19T00:29:27;22.85;;;4.32;;
63087;SDS011;49173;43.164;27.786;2023-01-19T00:32:00;17.48;;;3.72;;
63087;SDS011;49173;43.164;27.786;2023-01-19T00:34:30;26.13;;;4.70;;
63087;SDS011;49173;43.164;27.786;2023-01-19T00:37:10;12.23;;;4.20;;
63087;SDS011;49173;43.164;27.786;2023-01-19T00:39:36;21.60;;;4.00;;
63087;SDS011;49173;43.164;27.786;2023-01-19T00:42:02;80.68;;;27.33;;
63087;SDS011;49173;43.164;27.786;2023-01-19T00:44:46;22.92;;;5.25;;
63087;SDS011;49173;43.164;27.786;2023-01-19T00:47:12;19.77;;;4.35;;
63087;SDS011;49173;43.164;27.786;2023-01-19T00:49:38;15.38;;;3.22;;
63087;SDS011;49173;43.164;27.786;2023-01-19T00:52:04;19.30;;;3.58;;
63087;SDS011;49173;43.164;27.786;2023-01-19T00:54:30;16.63;;;4.10;;
63087;SDS011;49173;43.164;27.786;2023-01-19T00:56:56;18.77;;;3.22;;
63087;SDS011;49173;43.164;27.786;2023-01-19T00:59:22;18.80;;;3.53;;
63087;SDS011;49173;43.164;27.786;2023-01-19T01:01:50;16.45;;;3.80;;
63087;SDS011;49173;43.164;27.786;2023-01-19T01:04:15;15.23;;;3.22;;
63087;SDS011;49173;43.164;27.786;2023-01-19T01:06:41;20.92;;;4.75;;
63087;SDS011;49173;43.164;27.786;2023-01-19T01:09:08;15.65;;;3.67;;
63087;SDS011;49173;43.164;27.786;2023-01-19T01:11:38;18.47;;;4.83;;
63087;SDS011;49173;43.164;27.786;2023-01-19T01:14:04;19.00;;;4.03;;
63087;SDS011;49173;43.164;27.786;2023-01-19T01:16:30;15.27;;;3.20;;
63087;SDS011;49173;43.164;27.786;2023-01-19T01:18:55;13.95;;;4.05;;
63087;SDS011;49173;43.164;27.786;2023-01-19T01:21:21;19.20;;;3.47;;
63087;SDS011;49173;43.164;27.786;2023-01-19T01:23:47;17.25;;;3.80;;
63087;SDS011;49173;43.164;27.786;2023-01-19T01:26:13;16.05;;;3.50;;
63087;SDS011;49173;43.164;27.786;2023-01-19T01:28:39;13.70;;;3.33;;
63087;SDS011;49173;43.164;27.786;2023-01-19T01:31:05;18.52;;;3.47;;
63087;SDS011;49173;43.164;27.786;2023-01-19T01:33:30;20.65;;;3.72;;
63087;SDS011;49173;43.164;27.786;2023-01-19T01:35:56;15.63;;;4.03;;
63087;SDS011;49173;43.164;27.786;2023-01-19T01:38:22;15.55;;;3.70;;
63087;SDS011;49173;43.164;27.786;2023-01-19T01:40:47;15.50;;;3.72;;
63087;SDS011;49173;43.164;27.786;2023-01-19T01:43:14;22.25;;;3.45;;
63087;SDS011;49173;43.164;27.786;2023-01-19T01:45:41;16.27;;;3.45;;
63087;SDS011;49173;43.164;27.786;2023-01-19T01:50:43;14.68;;;4.38;;
63087;SDS011;49173;43.164;27.786;2023-01-19T01:53:39;18.15;;;3.80;;
63087;SDS011;49173;43.164;27.786;2023-01-19T01:56:08;18.70;;;4.10;;
63087;SDS011;49173;43.164;27.786;2023-01-19T01:58:38;17.75;;;4.68;;
63087;SDS011;49173;43.164;27.786;2023-01-19T02:01:05;19.13;;;3.75;;
63087;SDS011;49173;43.164;27.786;2023-01-19T02:03:50;16.98;;;3.35;;
63087;SDS011;49173;43.164;27.786;2023-01-19T02:06:17;19.23;;;4.25;;
63087;SDS011;49173;43.164;27.786;2023-01-19T02:08:46;16.75;;;3.38;;
63087;SDS011;49173;43.164;27.786;2023-01-19T02:11:34;22.60;;;3.75;;
63087;SDS011;49173;43.164;27.786;2023-01-19T02:14:19;19.92;;;3.75;;
63087;SDS011;49173;43.164;27.786;2023-01-19T02:16:44;23.65;;;3.92;;
63087;SDS011;49173;43.164;27.786;2023-01-19T02:19:20;16.67;;;3.58;;
63087;SDS011;49173;43.164;27.786;2023-01-19T02:22:15;15.68;;;3.17;;
63087;SDS011;49173;43.164;27.786;2023-01-19T02:24:49;19.75;;;3.58;;
63087;SDS011;49173;43.164;27.786;2023-01-19T02:27:16;18.02;;;3.88;;
63087;SDS011;49173;43.164;27.786;2023-01-19T02:29:42;18.05;;;3.55;;
63087;SDS011;49173;43.164;27.786;2023-01-19T02:32:08;21.25;;;5.00;;
63087;SDS011;49173;43.164;27.786;2023-01-19T02:34:35;15.98;;;4.45;;
63087;SDS011;49173;43.164;27.786;2023-01-19T02:37:02;27.02;;;4.10;;
63087;SDS011;49173;43.164;27.786;2023-01-19T02:39:33;20.13;;;4.00;;
63087;SDS011;49173;43.164;27.786;2023-01-19T02:42:05;23.63;;;4.28;;
63087;SDS011;49173;43.164;27.786;2023-01-19T02:44:36;33.13;;;9.07;;
63087;SDS011;49173;43.164;27.786;2023-01-19T02:47:04;30.85;;;4.40;;
63087;SDS011;49173;43.164;27.786;2023-01-19T02:49:30;16.60;;;3.80;;
63087;SDS011;49173;43.164;27.786;2023-01-19T02:51:56;19.83;;;3.88;;
63087;SDS011;49173;43.164;27.786;2023-01-19T02:54:26;14.23;;;3.33;;
63087;SDS011;49173;43.164;27.786;2023-01-19T03:00:13;21.95;;;4.00;;
63087;SDS011;49173;43.164;27.786;2023-01-19T03:08:45;16.80;;;3.65;;
63087;SDS011;49173;43.164;27.786;2023-01-19T03:11:17;16.35;;;4.60;;
63087;SDS011;49173;43.164;27.786;2023-01-19T03:13:56;22.67;;;4.15;;
63087;SDS011;49173;43.164;27.786;2023-01-19T03:16:34;20.60;;;3.75;;
63087;SDS011;49173;43.164;27.786;2023-01-19T03:19:09;18.13;;;3.47;;
63087;SDS011;49173;43.164;27.786;2023-01-19T03:21:43;18.63;;;5.60;;
63087;SDS011;49173;43.164;27.786;2023-01-19T03:24:12;20.40;;;4.05;;
63087;SDS011;49173;43.164;27.786;2023-01-19T03:26:44;16.03;;;4.13;;
63087;SDS011;49173;43.164;27.786;2023-01-19T03:29:20;17.92;;;4.15;;
63087;SDS011;49173;43.164;27.786;2023-01-19T03:31:49;24.63;;;5.53;;
63087;SDS011;49173;43.164;27.786;2023-01-19T03:34:16;23.77;;;3.90;;
63087;SDS011;49173;43.164;27.786;2023-01-19T03:36:50;21.95;;;4.65;;
63087;SDS011;49173;43.164;27.786;2023-01-19T03:39:22;18.10;;;3.75;;
63087;SDS011;49173;43.164;27.786;2023-01-19T03:41:51;25.58;;;4.63;;
63087;SDS011;49173;43.164;27.786;2023-01-19T03:44:22;18.63;;;4.22;;
63087;SDS011;49173;43.164;27.786;2023-01-19T03:46:51;21.52;;;5.05;;
63087;SDS011;49173;43.164;27.786;2023-01-19T03:49:17;23.40;;;4.15;;
63087;SDS011;49173;43.164;27.786;2023-01-19T03:51:43;22.67;;;3.90;;
63087;SDS011;49173;43.164;27.786;2023-01-19T03:54:09;21.10;;;4.28;;
63087;SDS011;49173;43.164;27.786;2023-01-19T03:56:35;26.90;;;4.30;;
63087;SDS011;49173;43.164;27.786;2023-01-19T03:59:01;22.25;;;4.13;;
63087;SDS011;49173;43.164;27.786;2023-01-19T04:01:29;17.67;;;4.05;;
63087;SDS011;49173;43.164;27.786;2023-01-19T04:03:55;21.63;;;4.65;;
63087;SDS011;49173;43.164;27.786;2023-01-19T04:06:21;18.52;;;4.57;;
63087;SDS011;49173;43.164;27.786;2023-01-19T04:08:48;28.48;;;5.80;;
63087;SDS011;49173;43.164;27.786;2023-01-19T04:11:15;19.15;;;4.10;;
63087;SDS011;49173;43.164;27.786;2023-01-19T04:13:41;23.90;;;4.05;;
63087;SDS011;49173;43.164;27.786;2023-01-19T04:16:08;20.05;;;4.07;;
63087;SDS011;49173;43.164;27.786;2023-01-19T04:18:35;25.60;;;4.65;;
63087;SDS011;49173;43.164;27.786;2023-01-19T04:21:05;27.10;;;6.85;;
63087;SDS011;49173;43.164;27.786;2023-01-19T04:23:31;18.77;;;4.60;;
63087;SDS011;49173;43.164;27.786;2023-01-19T04:25:58;21.60;;;4.72;;
63087;SDS011;49173;43.164;27.786;2023-01-19T04:28:32;21.25;;;4.63;;
63087;SDS011;49173;43.164;27.786;2023-01-19T04:30:59;25.95;;;4.25;;
63087;SDS011;49173;43.164;27.786;2023-01-19T04:33:25;17.35;;;4.10;;
63087;SDS011;49173;43.164;27.786;2023-01-19T04:35:55;25.33;;;4.80;;
63087;SDS011;49173;43.164;27.786;2023-01-19T04:38:22;22.23;;;5.15;;
63087;SDS011;49173;43.164;27.786;2023-01-19T04:40:49;27.52;;;4.57;;
63087;SDS011;49173;43.164;27.786;2023-01-19T04:43:17;21.92;;;4.43;;
63087;SDS011;49173;43.164;27.786;2023-01-19T04:45:44;26.95;;;4.13;;
63087;SDS011;49173;43.164;27.786;2023-01-19T04:48:11;25.80;;;4.65;;
63087;SDS011;49173;43.164;27.786;2023-01-19T04:50:37;24.65;;;3.97;;
63087;SDS011;49173;43.164;27.786;2023-01-19T04:53:03;25.15;;;4.60;;
63087;SDS011;49173;43.164;27.786;2023-01-19T04:55:29;29.77;;;4.70;;
63087;SDS011;49173;43.164;27.786;2023-01-19T04:57:55;19.10;;;4.82;;
63087;SDS011;49173;43.164;27.786;2023-01-19T05:00:21;20.10;;;5.43;;
63087;SDS011;49173;43.164;27.786;2023-01-19T05:02:48;27.70;;;6.18;;
63087;SDS011;49173;43.164;27.786;2023-01-19T05:05:15;23.10;;;4.50;;
63087;SDS011;49173;43.164;27.786;2023-01-19T05:07:41;22.98;;;5.30;;
63087;SDS011;49173;43.164;27.786;2023-01-19T05:10:08;27.83;;;6.05;;
63087;SDS011;49173;43.164;27.786;2023-01-19T05:12:34;20.67;;;4.97;;
63087;SDS011;49173;43.164;27.786;2023-01-19T05:15:00;19.20;;;5.20;;
63087;SDS011;49173;43.164;27.786;2023-01-19T05:17:26;26.45;;;4.22;;
63087;SDS011;49173;43.164;27.786;2023-01-19T05:19:52;22.63;;;3.75;;
63087;SDS011;49173;43.164;27.786;2023-01-19T05:22:18;29.02;;;4.72;;
63087;SDS011;49173;43.164;27.786;2023-01-19T05:24:43;21.42;;;4.25;;
63087;SDS011;49173;43.164;27.786;2023-01-19T05:27:09;20.65;;;4.57;;
63087;SDS011;49173;43.164;27.786;2023-01-19T05:29:35;22.85;;;4.60;;
63087;SDS011;49173;43.164;27.786;2023-01-19T05:32:01;26.60;;;4.80;;
63087;SDS011;49173;43.164;27.786;2023-01-19T05:34:26;22.35;;;4.05;;
63087;SDS011;49173;43.164;27.786;2023-01-19T05:36:52;20.60;;;4.35;;
63087;SDS011;49173;43.164;27.786;2023-01-19T05:39:18;23.55;;;4.20;;
63087;SDS011;49173;43.164;27.786;2023-01-19T05:41:44;24.38;;;4.18;;
63087;SDS011;49173;43.164;27.786;2023-01-19T05:44:10;19.90;;;3.45;;
63087;SDS011;49173;43.164;27.786;2023-01-19T05:46:37;18.73;;;4.45;;
63087;SDS011;49173;43.164;27.786;2023-01-19T05:49:03;24.30;;;3.85;;
63087;SDS011;49173;43.164;27.786;2023-01-19T05:51:29;22.83;;;4.28;;
63087;SDS011;49173;43.164;27.786;2023-01-19T05:54:05;24.27;;;5.20;;
63087;SDS011;49173;43.164;27.786;2023-01-19T05:56:32;24.88;;;4.80;;
63087;SDS011;49173;43.164;27.786;2023-01-19T05:58:59;25.08;;;4.95;;
63087;SDS011;49173;43.164;27.786;2023-01-19T06:01:26;38.95;;;8.77;;
63087;SDS011;49173;43.164;27.786;2023-01-19T06:03:52;25.90;;;7.70;;
63087;SDS011;49173;43.164;27.786;2023-01-19T06:06:17;28.35;;;6.03;;
63087;SDS011;49173;43.164;27.786;2023-01-19T06:08:44;25.02;;;6.55;;
63087;SDS011;49173;43.164;27.786;2023-01-19T06:11:10;28.23;;;6.40;;
63087;SDS011;49173;43.164;27.786;2023-01-19T06:13:36;23.90;;;6.50;;
63087;SDS011;49173;43.164;27.786;2023-01-19T06:16:04;24.17;;;5.80;;
63087;SDS011;49173;43.164;27.786;2023-01-19T06:18:30;29.55;;;6.20;;
63087;SDS011;49173;43.164;27.786;2023-01-19T06:20:55;21.63;;;4.85;;
63087;SDS011;49173;43.164;27.786;2023-01-19T06:23:24;24.65;;;5.45;;
63087;SDS011;49173;43.164;27.786;2023-01-19T06:25:51;27.63;;;6.57;;
63087;SDS011;49173;43.164;27.786;2023-01-19T06:28:17;25.15;;;5.95;;
63087;SDS011;49173;43.164;27.786;2023-01-19T06:30:46;21.20;;;4.95;;
63087;SDS011;49173;43.164;27.786;2023-01-19T06:33:14;25.05;;;4.93;;
63087;SDS011;49173;43.164;27.786;2023-01-19T06:35:44;33.15;;;4.45;;
63087;SDS011;49173;43.164;27.786;2023-01-19T06:38:12;22.08;;;5.18;;
63087;SDS011;49173;43.164;27.786;2023-01-19T06:40:39;19.17;;;4.20;;
63087;SDS011;49173;43.164;27.786;2023-01-19T06:43:06;24.65;;;6.32;;
63087;SDS011;49173;43.164;27.786;2023-01-19T06:45:33;34.08;;;7.18;;
63087;SDS011;49173;43.164;27.786;2023-01-19T06:47:59;69.85;;;26.83;;
63087;SDS011;49173;43.164;27.786;2023-01-19T06:50:28;41.92;;;13.40;;
63087;SDS011;49173;43.164;27.786;2023-01-19T06:52:54;22.70;;;7.97;;
63087;SDS011;49173;43.164;27.786;2023-01-19T06:55:21;28.95;;;5.60;;
63087;SDS011;49173;43.164;27.786;2023-01-19T06:57:54;25.13;;;5.00;;
63087;SDS011;49173;43.164;27.786;2023-01-19T07:00:22;28.17;;;5.45;;
63087;SDS011;49173;43.164;27.786;2023-01-19T07:02:50;38.55;;;6.05;;
63087;SDS011;49173;43.164;27.786;2023-01-19T07:05:17;33.58;;;7.68;;
63087;SDS011;49173;43.164;27.786;2023-01-19T07:07:43;34.35;;;9.23;;
63087;SDS011;49173;43.164;27.786;2023-01-19T07:10:11;26.50;;;5.85;;
63087;SDS011;49173;43.164;27.786;2023-01-19T07:12:42;26.63;;;5.30;;
63087;SDS011;49173;43.164;27.786;2023-01-19T07:15:11;32.03;;;7.60;;
63087;SDS011;49173;43.164;27.786;2023-01-19T07:17:37;40.22;;;15.35;;
63087;SDS011;49173;43.164;27.786;2023-01-19T07:20:08;45.95;;;15.15;;
63087;SDS011;49173;43.164;27.786;2023-01-19T07:22:37;32.28;;;10.32;;
63087;SDS011;49173;43.164;27.786;2023-01-19T07:25:04;26.63;;;6.65;;
63087;SDS011;49173;43.164;27.786;2023-01-19T07:27:31;25.08;;;5.88;;
63087;SDS011;49173;43.164;27.786;2023-01-19T07:29:59;30.80;;;7.55;;
63087;SDS011;49173;43.164;27.786;2023-01-19T07:32:32;22.13;;;4.25;;
63087;SDS011;49173;43.164;27.786;2023-01-19T07:35:01;27.70;;;5.40;;
63087;SDS011;49173;43.164;27.786;2023-01-19T07:37:29;20.65;;;4.38;;
63087;SDS011;49173;43.164;27.786;2023-01-19T07:39:57;27.20;;;5.22;;
63087;SDS011;49173;43.164;27.786;2023-01-19T07:42:23;25.30;;;6.68;;
63087;SDS011;49173;43.164;27.786;2023-01-19T07:44:50;28.02;;;4.53;;
63087;SDS011;49173;43.164;27.786;2023-01-19T07:47:17;29.13;;;4.70;;
63087;SDS011;49173;43.164;27.786;2023-01-19T07:49:44;29.25;;;4.28;;
63087;SDS011;49173;43.164;27.786;2023-01-19T07:52:11;26.58;;;4.72;;
63087;SDS011;49173;43.164;27.786;2023-01-19T07:54:40;29.77;;;5.05;;
63087;SDS011;49173;43.164;27.786;2023-01-19T07:57:15;34.28;;;5.35;;
63087;SDS011;49173;43.164;27.786;2023-01-19T07:59:46;25.02;;;4.45;;
63087;SDS011;49173;43.164;27.786;2023-01-19T08:02:13;24.63;;;5.30;;
63087;SDS011;49173;43.164;27.786;2023-01-19T08:04:41;25.25;;;4.43;;
63087;SDS011;49173;43.164;27.786;2023-01-19T08:07:09;23.42;;;3.85;;
63087;SDS011;49173;43.164;27.786;2023-01-19T08:09:35;29.75;;;4.60;;
63087;SDS011;49173;43.164;27.786;2023-01-19T08:12:01;27.73;;;4.30;;
63087;SDS011;49173;43.164;27.786;2023-01-19T08:14:28;24.65;;;4.68;;
63087;SDS011;49173;43.164;27.786;2023-01-19T08:16:59;30.92;;;4.60;;
63087;SDS011;49173;43.164;27.786;2023-01-19T08:19:26;28.73;;;4.93;;
63087;SDS011;49173;43.164;27.786;2023-01-19T08:21:53;27.60;;;4.45;;
63087;SDS011;49173;43.164;27.786;2023-01-19T08:24:21;26.05;;;5.15;;
63087;SDS011;49173;43.164;27.786;2023-01-19T08:26:56;27.05;;;5.28;;
63087;SDS011;49173;43.164;27.786;2023-01-19T08:29:27;24.77;;;4.78;;
63087;SDS011;49173;43.164;27.786;2023-01-19T08:31:56;28.25;;;4.40;;
63087;SDS011;49173;43.164;27.786;2023-01-19T08:34:24;18.65;;;4.50;;
63087;SDS011;49173;43.164;27.786;2023-01-19T08:36:52;27.58;;;4.53;;
63087;SDS011;49173;43.164;27.786;2023-01-19T08:39:19;22.23;;;5.38;;
63087;SDS011;49173;43.164;27.786;2023-01-19T08:41:49;30.55;;;4.43;;
63087;SDS011;49173;43.164;27.786;2023-01-19T08:44:17;24.27;;;4.65;;
63087;SDS011;49173;43.164;27.786;2023-01-19T08:46:43;31.70;;;5.60;;
63087;SDS011;49173;43.164;27.786;2023-01-19T08:49:09;27.30;;;5.68;;
63087;SDS011;49173;43.164;27.786;2023-01-19T08:51:36;18.33;;;3.97;;
63087;SDS011;49173;43.164;27.786;2023-01-19T08:54:04;27.02;;;4.78;;
63087;SDS011;49173;43.164;27.786;2023-01-19T08:56:31;19.35;;;4.07;;
63087;SDS011;49173;43.164;27.786;2023-01-19T08:58:58;25.48;;;4.53;;
63087;SDS011;49173;43.164;27.786;2023-01-19T09:01:25;21.75;;;4.15;;
63087;SDS011;49173;43.164;27.786;2023-01-19T09:03:53;24.95;;;4.88;;
63087;SDS011;49173;43.164;27.786;2023-01-19T09:06:19;28.48;;;4.57;;
63087;SDS011;49173;43.164;27.786;2023-01-19T09:08:49;23.75;;;4.07;;
63087;SDS011;49173;43.164;27.786;2023-01-19T09:11:16;19.63;;;4.55;;
63087;SDS011;49173;43.164;27.786;2023-01-19T09:13:44;31.40;;;6.15;;
63087;SDS011;49173;43.164;27.786;2023-01-19T09:16:14;32.67;;;4.55;;
63087;SDS011;49173;43.164;27.786;2023-01-19T09:18:41;31.67;;;4.82;;
63087;SDS011;49173;43.164;27.786;2023-01-19T09:21:07;26.80;;;5.15;;
63087;SDS011;49173;43.164;27.786;2023-01-19T09:23:35;31.13;;;5.07;;
63087;SDS011;49173;43.164;27.786;2023-01-19T09:26:03;21.70;;;4.45;;
63087;SDS011;49173;43.164;27.786;2023-01-19T09:28:30;28.90;;;6.38;;
63087;SDS011;49173;43.164;27.786;2023-01-19T09:30:57;28.30;;;4.85;;
63087;SDS011;49173;43.164;27.786;2023-01-19T09:33:24;29.70;;;5.80;;
63087;SDS011;49173;43.164;27.786;2023-01-19T09:35:52;30.77;;;6.65;;
63087;SDS011;49173;43.164;27.786;2023-01-19T09:38:21;23.83;;;6.03;;
63087;SDS011;49173;43.164;27.786;2023-01-19T09:40:51;25.27;;;5.65;;
63087;SDS011;49173;43.164;27.786;2023-01-19T09:49:13;26.90;;;4.53;;
63087;SDS011;49173;43.164;27.786;2023-01-19T09:51:44;25.45;;;4.07;;
63087;SDS011;49173;43.164;27.786;2023-01-19T09:54:19;25.08;;;5.20;;
63087;SDS011;49173;43.164;27.786;2023-01-19T09:57:17;27.42;;;4.97;;
63087;SDS011;49173;43.164;27.786;2023-01-19T09:59:43;22.30;;;3.97;;
63087;SDS011;49173;43.164;27.786;2023-01-19T10:08:01;23.92;;;4.60;;
63087;SDS011;49173;43.164;27.786;2023-01-19T10:10:46;27.00;;;4.68;;
63087;SDS011;49173;43.164;27.786;2023-01-19T10:13:20;27.55;;;4.22;;
63087;SDS011;49173;43.164;27.786;2023-01-19T10:18:59;28.60;;;4.88;;
63087;SDS011;49173;43.164;27.786;2023-01-19T10:21:43;18.90;;;3.58;;
63087;SDS011;49173;43.164;27.786;2023-01-19T10:27:11;26.33;;;4.15;;
63087;SDS011;49173;43.164;27.786;2023-01-19T10:29:43;23.15;;;4.28;;
63087;SDS011;49173;43.164;27.786;2023-01-19T10:34:47;26.33;;;3.78;;
63087;SDS011;49173;43.164;27.786;2023-01-19T10:37:17;22.83;;;4.15;;
63087;SDS011;49173;43.164;27.786;2023-01-19T10:42:35;23.52;;;3.85;;
63087;SDS011;49173;43.164;27.786;2023-01-19T10:45:03;24.08;;;3.92;;
63087;SDS011;49173;43.164;27.786;2023-01-19T10:47:39;23.00;;;4.70;;
63087;SDS011;49173;43.164;27.786;2023-01-19T10:53:21;22.58;;;3.45;;
63087;SDS011;49173;43.164;27.786;2023-01-19T10:56:07;21.58;;;4.57;;
63087;SDS011;49173;43.164;27.786;2023-01-19T10:58:38;21.40;;;3.55;;
63087;SDS011;49173;43.164;27.786;2023-01-19T11:01:22;20.15;;;3.47;;
63087;SDS011;49173;43.164;27.786;2023-01-19T11:03:53;19.77;;;3.78;;
63087;SDS011;49173;43.164;27.786;2023-01-19T11:06:28;24.27;;;3.60;;
63087;SDS011;49173;43.164;27.786;2023-01-19T11:11:48;22.23;;;3.63;;
63087;SDS011;49173;43.164;27.786;2023-01-19T11:14:20;22.15;;;3.83;;
63087;SDS011;49173;43.164;27.786;2023-01-19T11:16:55;17.83;;;3.45;;
63087;SDS011;49173;43.164;27.786;2023-01-19T11:19:27;17.30;;;3.38;;
63087;SDS011;49173;43.164;27.786;2023-01-19T11:24:46;17.20;;;3.42;;
63087;SDS011;49173;43.164;27.786;2023-01-19T11:27:18;17.08;;;3.53;;
63087;SDS011;49173;43.164;27.786;2023-01-19T11:29:47;18.60;;;3.08;;
63087;SDS011;49173;43.164;27.786;2023-01-19T11:32:24;20.85;;;3.45;;
63087;SDS011;49173;43.164;27.786;2023-01-19T11:34:52;19.10;;;4.70;;
63087;SDS011;49173;43.164;27.786;2023-01-19T11:39:52;24.38;;;4.10;;
63087;SDS011;49173;43.164;27.786;2023-01-19T11:42:23;17.95;;;3.67;;
63087;SDS011;49173;43.164;27.786;2023-01-19T11:45:03;15.55;;;3.60;;
63087;SDS011;49173;43.164;27.786;2023-01-19T11:47:42;16.55;;;4.15;;
63087;SDS011;49173;43.164;27.786;2023-01-19T11:50:20;15.68;;;3.40;;
63087;SDS011;49173;43.164;27.786;2023-01-19T11:55:57;24.77;;;4.35;;
63087;SDS011;49173;43.164;27.786;2023-01-19T11:58:24;16.92;;;3.33;;
63087;SDS011;49173;43.164;27.786;2023-01-19T12:06:10;19.98;;;4.00;;
63087;SDS011;49173;43.164;27.786;2023-01-19T12:08:42;16.33;;;3.15;;
63087;SDS011;49173;43.164;27.786;2023-01-19T12:11:11;17.83;;;3.33;;
63087;SDS011;49173;43.164;27.786;2023-01-19T12:13:44;14.80;;;2.85;;
63087;SDS011;49173;43.164;27.786;2023-01-19T12:16:29;15.77;;;3.22;;
63087;SDS011;49173;43.164;27.786;2023-01-19T12:19:00;19.08;;;3.33;;
63087;SDS011;49173;43.164;27.786;2023-01-19T12:21:31;16.50;;;3.30;;
63087;SDS011;49173;43.164;27.786;2023-01-19T12:24:02;16.35;;;2.72;;
63087;SDS011;49173;43.164;27.786;2023-01-19T12:29:21;15.43;;;3.28;;
63087;SDS011;49173;43.164;27.786;2023-01-19T12:34:43;16.83;;;2.35;;
63087;SDS011;49173;43.164;27.786;2023-01-19T12:40:19;21.42;;;3.03;;
63087;SDS011;49173;43.164;27.786;2023-01-19T12:43:00;9.20;;;2.30;;
63087;SDS011;49173;43.164;27.786;2023-01-19T12:45:32;13.05;;;2.92;;
63087;SDS011;49173;43.164;27.786;2023-01-19T12:48:04;18.63;;;3.13;;
63087;SDS011;49173;43.164;27.786;2023-01-19T12:50:49;15.93;;;3.20;;
63087;SDS011;49173;43.164;27.786;2023-01-19T12:53:18;17.00;;;3.25;;
63087;SDS011;49173;43.164;27.786;2023-01-19T12:55:57;15.73;;;2.63;;
63087;SDS011;49173;43.164;27.786;2023-01-19T12:58:30;13.80;;;2.50;;
63087;SDS011;49173;43.164;27.786;2023-01-19T13:01:12;13.98;;;2.50;;
63087;SDS011;49173;43.164;27.786;2023-01-19T13:03:59;12.20;;;2.80;;
63087;SDS011;49173;43.164;27.786;2023-01-19T13:09:33;9.25;;;2.65;;
63087;SDS011;49173;43.164;27.786;2023-01-19T13:14:40;17.40;;;3.40;;
63087;SDS011;49173;43.164;27.786;2023-01-19T13:17:16;9.88;;;2.10;;
63087;SDS011;49173;43.164;27.786;2023-01-19T13:19:56;11.18;;;2.30;;
63087;SDS011;49173;43.164;27.786;2023-01-19T13:25:20;11.88;;;3.10;;
63087;SDS011;49173;43.164;27.786;2023-01-19T13:27:52;6.60;;;2.03;;
63087;SDS011;49173;43.164;27.786;2023-01-19T13:30:19;16.38;;;2.78;;
63087;SDS011;49173;43.164;27.786;2023-01-19T13:32:55;10.15;;;3.38;;
63087;SDS011;49173;43.164;27.786;2023-01-19T13:35:29;12.10;;;2.95;;
63087;SDS011;49173;43.164;27.786;2023-01-19T13:37:55;9.52;;;3.38;;
63087;SDS011;49173;43.164;27.786;2023-01-19T13:40:24;11.68;;;3.70;;
63087;SDS011;49173;43.164;27.786;2023-01-19T13:42:58;14.40;;;4.15;;
63087;SDS011;49173;43.164;27.786;2023-01-19T13:45:27;11.35;;;2.88;;
63087;SDS011;49173;43.164;27.786;2023-01-19T13:47:59;10.30;;;2.53;;
63087;SDS011;49173;43.164;27.786;2023-01-19T13:50:32;9.60;;;2.67;;
63087;SDS011;49173;43.164;27.786;2023-01-19T13:53:00;11.20;;;2.22;;
63087;SDS011;49173;43.164;27.786;2023-01-19T13:55:29;8.13;;;2.15;;
63087;SDS011;49173;43.164;27.786;2023-01-19T13:57:58;14.48;;;2.22;;
63087;SDS011;49173;43.164;27.786;2023-01-19T14:00:28;5.63;;;2.00;;
63087;SDS011;49173;43.164;27.786;2023-01-19T14:03:01;9.73;;;2.30;;
63087;SDS011;49173;43.164;27.786;2023-01-19T14:05:48;10.50;;;2.72;;
63087;SDS011;49173;43.164;27.786;2023-01-19T14:08:16;10.25;;;2.30;;
63087;SDS011;49173;43.164;27.786;2023-01-19T14:10:47;9.07;;;2.20;;
63087;SDS011;49173;43.164;27.786;2023-01-19T14:13:29;9.15;;;2.60;;
63087;SDS011;49173;43.164;27.786;2023-01-19T14:16:04;7.35;;;1.98;;
63087;SDS011;49173;43.164;27.786;2023-01-19T14:18:39;11.32;;;2.35;;
63087;SDS011;49173;43.164;27.786;2023-01-19T14:21:10;7.75;;;2.00;;
63087;SDS011;49173;43.164;27.786;2023-01-19T14:23:48;8.95;;;2.28;;
63087;SDS011;49173;43.164;27.786;2023-01-19T14:29:31;7.68;;;2.60;;
63087;SDS011;49173;43.164;27.786;2023-01-19T14:36:54;6.88;;;2.05;;
63087;SDS011;49173;43.164;27.786;2023-01-19T14:39:21;9.15;;;3.80;;
63087;SDS011;49173;43.164;27.786;2023-01-19T14:41:49;7.60;;;2.45;;
63087;SDS011;49173;43.164;27.786;2023-01-19T14:46:56;9.70;;;2.40;;
63087;SDS011;49173;43.164;27.786;2023-01-19T14:49:29;9.85;;;2.10;;
63087;SDS011;49173;43.164;27.786;2023-01-19T14:55:15;13.77;;;4.32;;
63087;SDS011;49173;43.164;27.786;2023-01-19T14:57:53;10.30;;;5.35;;
63087;SDS011;49173;43.164;27.786;2023-01-19T15:00:19;9.70;;;3.90;;
63087;SDS011;49173;43.164;27.786;2023-01-19T15:02:46;11.82;;;3.63;;
63087;SDS011;49173;43.164;27.786;2023-01-19T15:05:12;9.23;;;2.90;;
63087;SDS011;49173;43.164;27.786;2023-01-19T15:07:43;28.85;;;4.93;;
63087;SDS011;49173;43.164;27.786;2023-01-19T15:10:17;14.32;;;3.90;;
63087;SDS011;49173;43.164;27.786;2023-01-19T15:12:48;12.15;;;3.63;;
63087;SDS011;49173;43.164;27.786;2023-01-19T15:15:18;18.50;;;6.05;;
63087;SDS011;49173;43.164;27.786;2023-01-19T15:17:50;15.50;;;5.93;;
63087;SDS011;49173;43.164;27.786;2023-01-19T15:20:18;12.23;;;4.90;;
63087;SDS011;49173;43.164;27.786;2023-01-19T15:22:50;8.73;;;3.45;;
63087;SDS011;49173;43.164;27.786;2023-01-19T15:25:18;15.88;;;4.63;;
63087;SDS011;49173;43.164;27.786;2023-01-19T15:27:48;9.38;;;2.83;;
63087;SDS011;49173;43.164;27.786;2023-01-19T15:30:22;6.60;;;2.80;;
63087;SDS011;49173;43.164;27.786;2023-01-19T15:32:52;11.07;;;2.20;;
63087;SDS011;49173;43.164;27.786;2023-01-19T15:35:20;5.93;;;2.50;;
63087;SDS011;49173;43.164;27.786;2023-01-19T15:37:48;9.73;;;3.50;;
63087;SDS011;49173;43.164;27.786;2023-01-19T15:40:15;9.52;;;3.17;;
63087;SDS011;49173;43.164;27.786;2023-01-19T15:42:48;7.95;;;2.13;;
63087;SDS011;49173;43.164;27.786;2023-01-19T15:47:47;15.27;;;2.70;;
63087;SDS011;49173;43.164;27.786;2023-01-19T15:50:13;8.48;;;2.17;;
63087;SDS011;49173;43.164;27.786;2023-01-19T15:52:59;6.40;;;2.33;;
63087;SDS011;49173;43.164;27.786;2023-01-19T15:55:27;9.48;;;2.20;;
63087;SDS011;49173;43.164;27.786;2023-01-19T15:57:53;8.30;;;2.17;;
63087;SDS011;49173;43.164;27.786;2023-01-19T16:00:29;12.43;;;2.25;;
63087;SDS011;49173;43.164;27.786;2023-01-19T16:02:56;6.32;;;1.80;;
63087;SDS011;49173;43.164;27.786;2023-01-19T16:05:28;8.75;;;2.75;;